Time;durP1;ratioP1;P1;durP2;ratioP2;P2;SDS_P1;SDS_P2;PMS_P1;PMS_P2;Temp;Humidity;BMP_temperature;BMP_pressure;BME280_temperature;BME280_humidity;BME280_pressure;Samples;Min_cycle;Max_cycle;Signal;HPM_P1;HPM_P2
2022/03/14 00:01:05;;;;;;;2.22;1.63;;;;;;;10.61;89.77;101609.44;5044136;28;20012;-52
2022/03/14 00:03:40;;;;;;;1.77;1.60;;;;;;;10.58;90.12;101608.91;5044810;28;20039;-51
2022/03/14 00:06:10;;;;;;;2.28;1.40;;;;;;;10.57;89.91;101621.41;5032607;28;20361;-51
2022/03/14 00:08:38;;;;;;;1.80;1.52;;;;;;;10.55;90.45;101622.53;5036720;28;20047;-52
2022/03/14 00:11:03;;;;;;;3.13;1.52;;;;;;;10.53;90.63;101627.19;5039741;28;20132;-52
2022/03/14 00:13:29;;;;;;;5.88;1.92;;;;;;;10.51;91.29;101626.47;5035115;28;20479;-51
2022/03/14 00:15:57;;;;;;;3.50;1.67;;;;;;;10.49;91.17;101637.31;5054088;28;20115;-50
2022/03/14 00:18:23;;;;;;;2.22;1.70;;;;;;;10.46;91.38;101634.91;5056060;28;20138;-50
2022/03/14 00:20:48;;;;;;;2.20;1.80;;;;;;;10.48;91.68;101640.09;5055845;28;20566;-51
2022/03/14 00:23:16;;;;;;;2.03;1.58;;;;;;;10.46;91.97;101648.25;5054035;28;20419;-48
2022/03/14 00:25:41;;;;;;;2.10;1.83;;;;;;;10.47;91.20;101644.59;5055830;28;20028;-48
2022/03/14 00:28:06;;;;;;;3.67;1.90;;;;;;;10.43;91.79;101641.34;5045669;28;20198;-50
2022/03/14 00:30:31;;;;;;;2.25;1.67;;;;;;;10.43;92.21;101644.03;5035521;28;20297;-50
2022/03/14 00:32:57;;;;;;;3.10;1.80;;;;;;;10.44;92.39;101648.41;5044148;28;20391;-51
2022/03/14 00:35:23;;;;;;;2.58;2.00;;;;;;;10.41;92.56;101647.84;5030189;28;20032;-51
2022/03/14 00:37:48;;;;;;;4.82;1.95;;;;;;;10.39;92.71;101657.81;5040267;28;20569;-51
2022/03/14 00:40:14;;;;;;;2.35;2.03;;;;;;;10.40;92.82;101670.16;5055418;28;20043;-48
2022/03/14 00:42:40;;;;;;;2.20;1.70;;;;;;;10.40;92.73;101657.69;5047998;28;20525;-50
2022/03/14 00:45:06;;;;;;;2.85;1.98;;;;;;;10.35;92.98;101659.94;5048673;28;20024;-52
2022/03/14 00:47:32;;;;;;;2.45;1.98;;;;;;;10.38;92.98;101672.16;5034697;28;20033;-52
2022/03/14 00:49:57;;;;;;;3.95;2.25;;;;;;;10.37;93.17;101678.47;5049521;28;20036;-50
2022/03/14 00:52:22;;;;;;;3.30;2.20;;;;;;;10.37;93.05;101678.47;5053972;28;20070;-52
2022/03/14 00:54:48;;;;;;;2.95;1.95;;;;;;;10.34;93.28;101682.25;5055718;28;20028;-51
2022/03/14 00:57:16;;;;;;;2.55;2.03;;;;;;;10.33;93.53;101680.56;5054635;28;20021;-47
2022/03/14 00:59:42;;;;;;;2.25;1.95;;;;;;;10.35;93.44;101686.63;5049001;28;20079;-51
2022/03/14 01:02:08;;;;;;;5.20;2.10;;;;;;;10.33;93.91;101688.56;5034987;28;20622;-49
2022/03/14 01:04:33;;;;;;;2.35;1.92;;;;;;;10.32;93.92;101689.56;5043861;28;20508;-51
2022/03/14 01:07:00;;;;;;;4.00;2.20;;;;;;;10.26;94.64;101696.25;5053772;28;20017;-51
2022/03/14 01:09:25;;;;;;;3.92;2.47;;;;;;;10.27;95.32;101694.47;5048395;28;20374;-51
2022/03/14 01:11:50;;;;;;;3.47;2.50;;;;;;;10.21;96.19;101698.50;5054575;28;20038;-51
2022/03/14 01:14:16;;;;;;;3.72;2.40;;;;;;;10.18;98.29;101692.59;5047281;28;21095;-48
2022/03/14 01:16:41;;;;;;;3.10;2.60;;;;;;;10.13;99.50;101703.69;5053745;28;20040;-50
2022/03/14 01:19:10;;;;;;;3.30;2.67;;;;;;;10.06;99.85;101708.75;5041856;28;20021;-51
2022/03/14 01:21:38;;;;;;;2.72;2.45;;;;;;;10.03;100.00;101709.00;5033104;28;20345;-51
2022/03/14 01:24:04;;;;;;;2.65;2.22;;;;;;;10.02;100.00;101711.81;5039741;28;20017;-51
2022/03/14 01:26:29;;;;;;;3.90;2.58;;;;;;;10.00;100.00;101711.94;5054445;28;20020;-51
2022/03/14 01:28:55;;;;;;;3.47;2.60;;;;;;;9.98;100.00;101715.72;5054912;28;20420;-50
2022/03/14 01:31:20;;;;;;;2.97;2.60;;;;;;;9.98;100.00;101718.38;5054613;28;20032;-51
2022/03/14 01:33:45;;;;;;;3.20;2.55;;;;;;;10.00;100.00;101721.78;5054433;28;20350;-50
2022/03/14 01:36:10;;;;;;;2.95;2.53;;;;;;;9.96;100.00;101721.22;5049538;28;20043;-52
2022/03/14 01:38:36;;;;;;;3.10;2.42;;;;;;;9.90;100.00;101719.91;5046310;28;20059;-51
2022/03/14 01:41:01;;;;;;;3.38;2.50;;;;;;;9.89;100.00;101720.91;5047950;28;20467;-52
2022/03/14 01:43:26;;;;;;;4.30;2.80;;;;;;;9.86;100.00;101725.66;5032893;28;20115;-50
2022/03/14 01:45:58;;;;;;;4.10;2.80;;;;;;;9.85;100.00;101737.31;5039453;28;20056;-51
2022/03/14 01:48:24;;;;;;;;;;;;;;;9.81;100.00;101727.88;5043683;28;20032;-51
2022/03/14 01:50:50;;;;;;;4.15;2.90;;;;;;;9.81;100.00;101726.06;5048408;28;19935;-48
2022/03/14 01:53:17;;;;;;;4.20;2.92;;;;;;;9.82;100.00;101726.91;5036564;28;20225;-50
2022/03/14 01:55:43;;;;;;;3.80;3.00;;;;;;;9.79;100.00;101733.38;5054393;28;20028;-50
2022/03/14 01:58:09;;;;;;;3.53;2.78;;;;;;;9.78;100.00;101738.84;5035248;28;20228;-48
2022/03/14 02:00:35;;;;;;;4.47;3.00;;;;;;;9.78;100.00;101738.84;5033835;28;20551;-51
2022/03/14 02:03:00;;;;;;;3.92;3.05;;;;;;;9.77;100.00;101743.31;5033878;28;20029;-51
2022/03/14 02:05:28;;;;;;;3.63;2.95;;;;;;;9.76;100.00;101743.44;5049060;28;20146;-50
2022/03/14 02:07:56;;;;;;;3.70;2.97;;;;;;;9.75;100.00;101747.09;5053030;28;20343;-51
2022/03/14 02:10:21;;;;;;;4.63;3.20;;;;;;;9.74;100.00;101748.06;5051830;28;20107;-48
2022/03/14 02:12:46;;;;;;;3.92;3.20;;;;;;;9.76;100.00;101752.31;5048106;28;20700;-49
2022/03/14 02:15:12;;;;;;;4.32;3.13;;;;;;;9.77;100.00;101753.16;5052140;28;20039;-51
2022/03/14 02:17:37;;;;;;;3.88;2.92;;;;;;;9.79;100.00;101756.50;5033176;28;20384;-52
2022/03/14 02:20:03;;;;;;;4.03;3.13;;;;;;;9.81;100.00;101767.88;5035104;28;20460;-51
2022/03/14 02:22:28;;;;;;;3.75;3.10;;;;;;;9.84;100.00;101770.28;5040827;28;20353;-52
2022/03/14 02:24:53;;;;;;;4.10;3.33;;;;;;;9.84;100.00;101770.28;5054700;28;20043;-50
2022/03/14 02:27:19;;;;;;;4.95;3.20;;;;;;;9.85;100.00;101770.16;5039996;28;20182;-48
2022/03/14 02:29:44;;;;;;;6.05;3.17;;;;;;;9.87;100.00;101776.22;5049986;28;20490;-50
2022/03/14 02:32:11;;;;;;;4.78;3.47;;;;;;;9.85;100.00;101767.50;5034285;28;20044;-52
2022/03/14 02:34:37;;;;;;;6.40;3.63;;;;;;;9.82;100.00;101769.59;5053076;28;20020;-50
2022/03/14 02:37:04;;;;;;;5.55;3.45;;;;;;;9.83;100.00;101769.47;5052255;28;20368;-50
2022/03/14 02:39:32;;;;;;;8.43;3.78;;;;;;;9.83;100.00;101771.28;5033128;28;20453;-50
2022/03/14 02:42:01;;;;;;;5.78;3.22;;;;;;;9.82;100.00;101769.59;5034517;28;20343;-51
2022/03/14 02:44:27;;;;;;;4.47;3.13;;;;;;;9.80;100.00;101767.06;5043816;28;20482;-52
2022/03/14 02:46:52;;;;;;;5.55;3.60;;;;;;;9.78;100.00;101774.34;5047526;28;20032;-51
2022/03/14 02:49:18;;;;;;;4.40;3.38;;;;;;;9.76;100.00;101776.31;5044614;28;20020;-51
2022/03/14 02:51:43;;;;;;;9.25;3.40;;;;;;;9.77;100.00;101778.00;5052097;28;20119;-51
2022/03/14 02:54:10;;;;;;;4.47;3.35;;;;;;;9.71;100.00;101774.03;5044227;28;20032;-51
2022/03/14 02:56:37;;;;;;;4.50;3.60;;;;;;;9.73;100.00;101795.25;5040061;28;20021;-52
2022/03/14 02:59:04;;;;;;;3.70;3.10;;;;;;;9.73;100.00;101797.09;5039565;28;20056;-51
2022/03/14 03:01:29;;;;;;;5.72;3.45;;;;;;;9.74;100.00;101796.09;5052710;28;20290;-50
2022/03/14 03:03:55;;;;;;;5.28;3.28;;;;;;;9.70;100.00;101799.00;5035274;28;20063;-51
2022/03/14 03:06:23;;;;;;;3.72;3.05;;;;;;;9.68;100.00;101805.47;5031794;28;20085;-52
2022/03/14 03:08:52;;;;;;;4.32;3.20;;;;;;;9.67;100.00;101809.09;5052419;28;20032;-50
2022/03/14 03:11:18;;;;;;;4.13;3.20;;;;;;;9.65;100.00;101814.56;5037571;28;20105;-52
2022/03/14 03:13:45;;;;;;;4.43;3.40;;;;;;;9.62;100.00;101814.84;5032407;28;20219;-51
2022/03/14 03:16:13;;;;;;;4.63;3.30;;;;;;;9.59;100.00;101822.25;5049589;28;20032;-51
2022/03/14 03:18:39;;;;;;;4.07;3.20;;;;;;;9.55;100.00;101834.16;5047212;28;20039;-50
2022/03/14 03:21:04;;;;;;;4.75;3.38;;;;;;;9.51;100.00;101834.41;5050207;28;20111;-50
2022/03/14 03:23:30;;;;;;;4.45;3.08;;;;;;;9.45;100.00;101832.28;5049897;28;20082;-49
2022/03/14 03:25:55;;;;;;;5.20;3.63;;;;;;;9.40;100.00;101833.63;5033142;28;20012;-51
2022/03/14 03:28:20;;;;;;;4.03;3.30;;;;;;;9.40;100.00;101844.28;5051798;28;20024;-49
2022/03/14 03:30:46;;;;;;;4.63;3.42;;;;;;;9.37;100.00;101837.41;5052156;28;20107;-50
2022/03/14 03:33:11;;;;;;;4.18;3.42;;;;;;;9.32;100.00;101855.63;5037816;28;20036;-51
2022/03/14 03:35:37;;;;;;;4.07;3.30;;;;;;;9.27;100.00;101855.16;5031830;28;20033;-47
2022/03/14 03:38:02;;;;;;;3.67;3.33;;;;;;;9.26;100.00;101872.94;5038516;28;20068;-51
2022/03/14 03:40:27;;;;;;;4.45;3.63;;;;;;;9.23;100.00;101873.22;5052007;28;20134;-53
2022/03/14 03:42:53;;;;;;;5.78;3.60;;;;;;;9.22;100.00;101892.84;5051603;28;20035;-51
2022/03/14 03:45:18;;;;;;;4.25;3.67;;;;;;;9.19;100.00;101884.25;5051723;28;20033;-51
2022/03/14 03:47:44;;;;;;;5.90;3.70;;;;;;;9.17;100.00;101889.72;5050137;28;20109;-51
2022/03/14 03:50:09;;;;;;;5.13;3.60;;;;;;;9.15;100.00;101894.31;5033615;28;20029;-50
2022/03/14 03:52:35;;;;;;;3.97;3.58;;;;;;;9.15;100.00;101908.50;5032461;28;20073;-52
2022/03/14 03:55:00;;;;;;;5.95;3.70;;;;;;;9.14;100.00;101900.63;5036956;28;20062;-52
2022/03/14 03:57:25;;;;;;;5.50;4.07;;;;;;;9.14;100.00;101911.28;5031777;28;20107;-51
2022/03/14 03:59:51;;;;;;;4.82;3.90;;;;;;;9.09;100.00;101910.81;5037151;28;20100;-50
2022/03/14 04:02:19;;;;;;;6.60;4.50;;;;;;;9.07;100.00;101928.75;5043677;28;20021;-52
2022/03/14 04:04:49;;;;;;;4.78;4.28;;;;;;;9.01;100.00;101930.06;5045987;28;20025;-50
2022/03/14 04:07:16;;;;;;;6.65;4.90;;;;;;;8.91;100.00;101931.78;5030698;28;20021;-51
2022/03/14 04:09:41;;;;;;;6.40;5.00;;;;;;;8.79;100.00;101930.94;5032156;28;20055;-52
2022/03/14 04:12:07;;;;;;;6.25;5.00;;;;;;;8.77;100.00;101947.09;5030711;28;20029;-51
2022/03/14 04:14:32;;;;;;;6.93;4.72;;;;;;;8.74;100.00;101951.78;5031335;28;20037;-51
2022/03/14 04:16:59;;;;;;;6.85;5.35;;;;;;;8.69;100.00;101951.28;5042793;28;20024;-51
2022/03/14 04:19:25;;;;;;;7.13;5.60;;;;;;;8.70;100.00;101955.66;5046757;28;20106;-52
2022/03/14 04:21:52;;;;;;;8.65;6.20;;;;;;;8.65;100.00;101963.16;5037232;28;20560;-50
2022/03/14 04:24:18;;;;;;;8.52;6.07;;;;;;;8.62;100.00;101963.41;5047671;28;20105;-52
2022/03/14 04:26:45;;;;;;;9.55;6.20;;;;;;;8.57;100.00;101955.78;5051684;28;20955;-49
2022/03/14 04:29:10;;;;;;;7.68;5.75;;;;;;;8.54;100.00;101964.03;5050359;28;20530;-50
2022/03/14 04:31:36;;;;;;;6.90;5.32;;;;;;;8.53;100.00;101960.50;5033153;28;20133;-51
2022/03/14 04:34:02;;;;;;;7.03;5.45;;;;;;;8.52;100.00;101974.78;5050374;28;20036;-51
2022/03/14 04:36:27;;;;;;;7.70;5.78;;;;;;;8.48;100.00;101970.66;5031059;28;20189;-50
2022/03/14 04:38:52;;;;;;;9.02;5.80;;;;;;;8.43;100.00;101983.47;5047223;28;20473;-51
2022/03/14 04:41:18;;;;;;;7.18;5.60;;;;;;;8.37;100.00;101979.47;5051538;28;20035;-51
2022/03/14 04:43:43;;;;;;;9.60;5.43;;;;;;;8.34;100.00;101992.16;5051115;28;20463;-52
2022/03/14 04:46:09;;;;;;;7.95;6.03;;;;;;;8.29;100.00;101997.81;5051441;28;20139;-49
2022/03/14 04:48:34;;;;;;;8.65;5.95;;;;;;;8.28;100.00;101996.16;5030170;28;20025;-51
2022/03/14 04:51:00;;;;;;;10.10;6.43;;;;;;;8.29;100.00;101999.66;5038269;28;20036;-51
2022/03/14 04:53:25;;;;;;;8.40;6.18;;;;;;;8.29;100.00;102002.31;5023567;28;20495;-51
2022/03/14 04:55:51;;;;;;;8.93;6.43;;;;;;;8.29;100.00;102013.78;5035409;28;20056;-52
2022/03/14 04:58:17;;;;;;;9.60;6.78;;;;;;;8.29;100.00;102010.28;5034491;28;20182;-51
2022/03/14 05:00:43;;;;;;;10.35;6.88;;;;;;;8.32;100.00;102020.72;5035455;28;20055;-51
2022/03/14 05:03:09;;;;;;;11.25;7.13;;;;;;;8.27;100.00;102013.06;5037462;28;20025;-50
2022/03/14 05:05:34;;;;;;;10.10;7.07;;;;;;;8.31;100.00;102019.84;5037831;28;20016;-50
2022/03/14 05:08:00;;;;;;;9.68;6.78;;;;;;;8.30;100.00;102023.50;5055183;28;20032;-51
2022/03/14 05:10:27;;;;;;;11.63;7.55;;;;;;;8.25;100.00;102033.63;5048053;28;20029;-52
2022/03/14 05:12:52;;;;;;;9.55;7.07;;;;;;;8.21;100.00;102035.69;5033197;28;20028;-50
2022/03/14 05:15:18;;;;;;;11.48;7.38;;;;;;;8.18;100.00;102040.38;5034570;28;20064;-52
2022/03/14 05:17:47;;;;;;;11.32;7.57;;;;;;;8.16;100.00;102040.50;5034611;28;20115;-52
2022/03/14 05:20:13;;;;;;;11.57;7.45;;;;;;;8.20;100.00;102052.59;5034912;28;20403;-51
2022/03/14 05:22:48;;;;;;;9.82;7.53;;;;;;;8.17;100.00;102058.16;5041757;28;20052;-52
2022/03/14 05:25:16;;;;;;;11.13;8.10;;;;;;;8.16;100.00;102067.13;5053207;28;20020;-52
2022/03/14 05:27:42;;;;;;;10.43;8.02;;;;;;;8.14;100.00;102065.53;5034746;28;20028;-51
2022/03/14 05:30:08;;;;;;;11.02;8.27;;;;;;;8.13;100.00;102064.69;5034221;28;20037;-51
2022/03/14 05:32:35;;;;;;;10.65;7.85;;;;;;;8.16;100.00;102074.25;5042294;28;20495;-52
2022/03/14 05:35:00;;;;;;;13.00;8.23;;;;;;;8.17;100.00;102076.78;5034564;28;20048;-52
2022/03/14 05:37:26;;;;;;;10.68;8.23;;;;;;;8.15;100.00;102091.19;5047378;28;20099;-52
2022/03/14 05:39:51;;;;;;;11.48;8.32;;;;;;;8.15;100.00;102091.19;5054412;28;20060;-52
2022/03/14 05:42:16;;;;;;;11.63;7.95;;;;;;;8.14;100.00;102090.31;5054192;28;21107;-50
2022/03/14 05:44:45;;;;;;;12.60;8.00;;;;;;;8.12;100.00;102094.91;5053843;28;20430;-50
2022/03/14 05:47:10;;;;;;;12.63;8.85;;;;;;;8.11;100.00;102105.66;5053880;28;20571;-50
2022/03/14 05:49:35;;;;;;;12.15;8.85;;;;;;;8.11;100.00;102108.31;5049073;28;20124;-51
2022/03/14 05:52:01;;;;;;;13.77;9.93;;;;;;;8.05;100.00;102106.97;5038853;28;20035;-50
2022/03/14 05:54:26;;;;;;;15.98;9.73;;;;;;;8.03;100.00;102111.56;5033991;28;20098;-52
2022/03/14 05:56:51;;;;;;;14.25;10.25;;;;;;;8.05;100.00;102122.94;5040225;28;20035;-51
2022/03/14 05:59:17;;;;;;;16.80;10.95;;;;;;;8.05;100.00;102122.94;5033374;28;20044;-52
2022/03/14 06:01:43;;;;;;;15.82;10.57;;;;;;;8.04;100.00;102131.88;5044591;28;20082;-51
2022/03/14 06:04:09;;;;;;;16.02;10.55;;;;;;;8.05;100.00;102133.59;5042303;28;20426;-49
2022/03/14 06:06:34;;;;;;;15.13;10.32;;;;;;;8.04;100.00;102142.50;5042198;28;20103;-51
2022/03/14 06:08:59;;;;;;;15.93;9.80;;;;;;;8.04;100.00;102137.19;5053961;28;20035;-51
2022/03/14 06:11:25;;;;;;;14.48;9.93;;;;;;;8.07;100.00;102150.28;5035171;28;20020;-50
2022/03/14 06:13:51;;;;;;;15.65;10.23;;;;;;;8.10;100.00;102150.06;5052706;28;20024;-50
2022/03/14 06:16:16;;;;;;;16.35;10.40;;;;;;;8.12;100.00;102153.44;5035332;28;20551;-50
2022/03/14 06:18:41;;;;;;;20.08;11.35;;;;;;;8.15;100.00;102168.34;5033182;28;20039;-52
2022/03/14 06:21:06;;;;;;;21.30;12.13;;;;;;;8.19;100.00;102168.00;5032693;28;20033;-51
2022/03/14 06:23:32;;;;;;;15.27;11.13;;;;;;;8.21;100.00;102168.75;5043589;28;20086;-50
2022/03/14 06:25:57;;;;;;;19.88;11.90;;;;;;;8.24;100.00;102174.81;5046008;28;20374;-52
2022/03/14 06:28:23;;;;;;;18.00;12.13;;;;;;;8.22;100.00;102166.94;5035830;28;20079;-48
2022/03/14 06:30:48;;;;;;;20.92;12.80;;;;;;;8.22;100.00;102170.44;5044810;28;20033;-50
2022/03/14 06:33:13;;;;;;;17.90;11.82;;;;;;;8.22;100.00;102177.56;5049932;28;20029;-48
2022/03/14 06:35:40;;;;;;;18.10;12.48;;;;;;;8.24;100.00;102185.44;5039641;28;20115;-49
2022/03/14 06:38:06;;;;;;;20.90;11.45;;;;;;;8.23;100.00;102189.91;5046454;28;20079;-51
2022/03/14 06:40:31;;;;;;;17.60;12.73;;;;;;;8.19;100.00;102194.59;5073294;28;20479;-48
2022/03/14 06:42:57;;;;;;;18.42;13.25;;;;;;;8.21;100.00;102200.69;5072914;28;20028;-51
2022/03/14 06:45:23;;;;;;;19.17;12.43;;;;;;;8.22;100.00;102205.03;5067099;28;20058;-49
2022/03/14 06:47:53;;;;;;;21.23;12.70;;;;;;;8.25;100.00;102203.97;5059632;28;20557;-51
2022/03/14 06:50:20;;;;;;;22.65;12.88;;;;;;;8.24;100.00;102204.09;5059654;28;20027;-52
2022/03/14 06:52:46;;;;;;;19.60;13.07;;;;;;;8.21;100.00;102208.69;5063320;28;20020;-52
2022/03/14 06:55:12;;;;;;;21.55;13.45;;;;;;;8.23;100.00;102208.53;5059767;28;20050;-51
2022/03/14 06:57:38;;;;;;;25.92;14.45;;;;;;;8.27;100.00;102215.34;5068211;28;20024;-51
2022/03/14 07:00:04;;;;;;;27.35;14.07;;;;;;;8.29;100.00;102210.75;5062816;28;20027;-50
2022/03/14 07:02:29;;;;;;;22.58;13.85;;;;;;;8.33;100.00;102219.38;5059363;28;20422;-51
2022/03/14 07:04:55;;;;;;;20.83;14.32;;;;;;;8.37;100.00;102226.19;5064897;28;20016;-51
2022/03/14 07:07:20;;;;;;;21.33;13.52;;;;;;;8.41;100.00;102219.66;5066513;28;20368;-51
2022/03/14 07:09:45;;;;;;;25.33;14.13;;;;;;;8.42;100.00;102224.03;5064076;28;20422;-51
2022/03/14 07:12:12;;;;;;;24.63;14.10;;;;;;;8.47;100.00;102226.38;5061718;28;20089;-51
2022/03/14 07:14:37;;;;;;;24.05;13.80;;;;;;;8.47;100.00;102231.69;5067655;28;20094;-51
2022/03/14 07:17:03;;;;;;;24.13;14.23;;;;;;;8.50;100.00;102240.31;5071584;28;20039;-49
2022/03/14 07:19:28;;;;;;;23.02;13.75;;;;;;;8.50;100.00;102240.31;5067179;28;20020;-51
2022/03/14 07:21:54;;;;;;;22.98;14.70;;;;;;;8.56;100.00;102244.34;5051345;28;20107;-51
2022/03/14 07:24:19;;;;;;;23.70;14.23;;;;;;;8.59;100.00;102250.28;5063327;28;20135;-53
2022/03/14 07:26:44;;;;;;;25.75;14.52;;;;;;;8.62;100.00;102243.88;5069964;28;20020;-52
2022/03/14 07:29:10;;;;;;;24.83;14.35;;;;;;;8.63;100.00;102250.06;5070673;28;20447;-52
2022/03/14 07:31:37;;;;;;;23.52;14.20;;;;;;;8.65;100.00;102248.97;5055397;28;20033;-51
2022/03/14 07:34:02;;;;;;;28.10;15.75;;;;;;;8.67;100.00;102249.72;5051662;28;20024;-51
2022/03/14 07:36:28;;;;;;;22.95;14.25;;;;;;;8.68;100.00;102247.91;5051239;28;20035;-52
2022/03/14 07:38:56;;;;;;;24.13;14.27;;;;;;;8.71;100.00;102255.69;5050414;28;20072;-51
2022/03/14 07:41:22;;;;;;;23.95;14.20;;;;;;;8.79;100.00;102258.59;5070718;28;20038;-50
2022/03/14 07:43:47;;;;;;;23.02;14.63;;;;;;;8.86;100.00;102258.97;5064487;28;20035;-50
2022/03/14 07:46:12;;;;;;;25.92;15.10;;;;;;;8.91;100.00;102264.81;5060294;28;20024;-49
2022/03/14 07:48:37;;;;;;;24.90;15.60;;;;;;;8.91;100.00;102260.34;5071404;28;20040;-52
2022/03/14 07:51:03;;;;;;;25.98;14.98;;;;;;;8.95;100.00;102266.31;5071145;28;20231;-51
2022/03/14 07:53:30;;;;;;;27.13;14.70;;;;;;;9.01;100.00;102270.31;5071972;28;20068;-51
2022/03/14 07:55:55;;;;;;;24.40;14.43;;;;;;;9.05;100.00;102269.97;5072840;28;20383;-52
2022/03/14 07:58:20;;;;;;;27.73;14.73;;;;;;;9.05;100.00;102274.47;5070550;28;20031;-52
2022/03/14 08:00:46;;;;;;;24.85;14.98;;;;;;;9.08;100.00;102279.53;5066875;28;20379;-52
2022/03/14 08:03:11;;;;;;;26.92;16.45;;;;;;;9.05;100.00;102275.31;5061567;28;20036;-51
2022/03/14 08:05:37;;;;;;;26.60;15.85;;;;;;;9.05;100.00;102280.63;5070650;28;20545;-51
2022/03/14 08:08:04;;;;;;;28.05;17.05;;;;;;;9.04;100.00;102294.91;5070607;28;20531;-50
2022/03/14 08:10:30;;;;;;;29.60;17.17;;;;;;;9.06;100.00;102289.47;5058650;28;20085;-48
2022/03/14 08:12:57;;;;;;;30.65;17.70;;;;;;;9.00;100.00;102293.44;5061647;28;20403;-51
2022/03/14 08:15:27;;;;;;;31.88;17.10;;;;;;;9.10;100.00;102294.47;5071058;28;20043;-50
2022/03/14 08:17:58;;;;;;;31.40;16.77;;;;;;;9.09;100.00;102300.75;5058872;28;20099;-48
2022/03/14 08:20:26;;;;;;;31.30;16.83;;;;;;;9.12;100.00;102305.00;5053918;28;20097;-52
2022/03/14 08:22:53;;;;;;;30.83;17.42;;;;;;;9.07;100.00;102317.84;5071304;28;20549;-52
2022/03/14 08:25:19;;;;;;;32.47;17.60;;;;;;;9.04;100.00;102318.06;5070772;28;20280;-52
2022/03/14 08:27:44;;;;;;;31.23;18.30;;;;;;;9.04;100.00;102321.56;5051625;28;20354;-49
2022/03/14 08:30:10;;;;;;;29.80;17.52;;;;;;;9.08;100.00;102316.84;5059679;28;20027;-48
2022/03/14 08:32:39;;;;;;;32.78;17.67;;;;;;;9.12;100.00;102323.66;5075059;28;20032;-51
2022/03/14 08:35:09;;;;;;;25.33;16.20;;;;;;;9.15;100.00;102328.78;5069922;28;20379;-48
2022/03/14 08:37:42;;;;;;;27.30;17.05;;;;;;;9.18;100.00;102330.34;5069913;28;20057;-49
2022/03/14 08:40:11;;;;;;;33.65;18.00;;;;;;;9.23;100.00;102337.03;5055804;28;20141;-51
2022/03/14 08:42:38;;;;;;;30.10;17.40;;;;;;;9.30;100.00;102345.41;5061901;28;20482;-51
2022/03/14 08:45:04;;;;;;;28.08;16.85;;;;;;;9.38;100.00;102348.34;5071827;28;20039;-51
2022/03/14 08:47:30;;;;;;;32.50;17.45;;;;;;;9.46;100.00;102345.09;5055650;28;20020;-51
2022/03/14 08:49:55;;;;;;;31.83;16.33;;;;;;;9.56;100.00;102356.78;5071721;28;20046;-52
2022/03/14 08:52:20;;;;;;;30.13;17.33;;;;;;;9.64;100.00;102358.84;5062587;28;20387;-52
2022/03/14 08:54:46;;;;;;;30.30;16.80;;;;;;;9.75;100.00;102360.69;5076073;28;20100;-51
2022/03/14 08:57:11;;;;;;;31.90;16.77;;;;;;;9.81;100.00;102371.75;5065854;28;20024;-53
2022/03/14 08:59:36;;;;;;;30.10;15.48;;;;;;;9.91;100.00;102377.19;5065151;28;20016;-50
2022/03/14 09:02:02;;;;;;;30.05;16.40;;;;;;;9.91;100.00;102379.88;5063345;28;20170;-52
2022/03/14 09:04:27;;;;;;;24.95;15.93;;;;;;;9.99;100.00;102390.81;5067949;28;20475;-50
2022/03/14 09:06:52;;;;;;;28.60;16.77;;;;;;;10.00;100.00;102387.19;5072538;28;20066;-51
2022/03/14 09:09:18;;;;;;;32.45;18.13;;;;;;;10.06;100.00;102393.84;5074700;28;20032;-51
2022/03/14 09:11:44;;;;;;;28.83;16.98;;;;;;;10.06;100.00;102386.72;5062226;28;20396;-51
2022/03/14 09:14:10;;;;;;;35.65;18.38;;;;;;;10.04;100.00;102391.28;5054158;28;20177;-51
2022/03/14 09:16:35;;;;;;;32.13;17.70;;;;;;;10.04;100.00;102393.13;5061523;28;20028;-47
2022/03/14 09:19:01;;;;;;;34.30;17.73;;;;;;;9.97;100.00;102397.25;5065796;28;20034;-51
2022/03/14 09:21:27;;;;;;;30.05;18.10;;;;;;;9.99;100.00;102401.47;5055422;28;20558;-50
2022/03/14 09:23:53;;;;;;;30.10;17.20;;;;;;;10.02;100.00;102406.59;5070822;28;20036;-48
2022/03/14 09:26:18;;;;;;;31.48;17.27;;;;;;;10.04;100.00;102409.97;5070895;28;20066;-52
2022/03/14 09:28:44;;;;;;;29.70;16.70;;;;;;;10.09;100.00;102413.16;5065993;28;20395;-50
2022/03/14 09:31:12;;;;;;;30.92;16.95;;;;;;;10.06;100.00;102417.88;5067805;28;20044;-49
2022/03/14 09:33:38;;;;;;;32.35;17.13;;;;;;;10.05;100.00;102427.72;5062483;28;20059;-50
2022/03/14 09:36:05;;;;;;;31.92;17.63;;;;;;;9.99;100.00;102430.84;5058702;28;20483;-52
2022/03/14 09:38:30;;;;;;;30.00;17.23;;;;;;;9.93;100.00;102449.16;5049211;28;20678;-48
2022/03/14 09:41:02;;;;;;;30.55;17.65;;;;;;;9.90;100.00;102450.25;5044229;28;20433;-52
2022/03/14 09:43:28;;;;;;;;;;;;;;;9.98;100.00;102453.19;5046794;28;20515;-51
2022/03/14 09:45:55;;;;;;;28.88;16.75;;;;;;;10.05;100.00;102457.06;5042986;28;20350;-52
2022/03/14 09:48:22;;;;;;;28.73;15.40;;;;;;;10.12;100.00;102462.78;5042873;28;20167;-52
2022/03/14 09:50:48;;;;;;;27.00;16.63;;;;;;;10.09;100.00;102453.19;5033808;28;20082;-51
2022/03/14 09:53:17;;;;;;;25.02;14.82;;;;;;;10.12;100.00;102462.78;5033973;28;20134;-50
2022/03/14 09:55:46;;;;;;;30.77;15.15;;;;;;;10.16;100.00;102469.59;5054191;28;20284;-52
2022/03/14 09:58:13;;;;;;;26.52;14.40;;;;;;;10.22;100.00;102471.78;5048746;28;20350;-50
2022/03/14 10:00:39;;;;;;;29.25;14.52;;;;;;;10.24;100.00;102479.69;5033615;28;20109;-52
2022/03/14 10:03:04;;;;;;;29.23;14.30;;;;;;;10.30;100.00;102478.34;5053387;28;20141;-50
2022/03/14 10:05:30;;;;;;;26.60;14.30;;;;;;;10.39;100.00;102477.69;5050088;28;20059;-51
2022/03/14 10:07:56;;;;;;;25.75;15.15;;;;;;;10.50;100.00;102474.16;5052930;28;20104;-52
2022/03/14 10:10:22;;;;;;;24.33;13.48;;;;;;;10.56;100.00;102476.38;5051380;28;20051;-51
2022/03/14 10:12:54;;;;;;;25.13;13.55;;;;;;;10.79;100.00;102477.19;5039356;28;20051;-51
2022/03/14 10:15:25;;;;;;;21.80;13.63;;;;;;;11.25;100.00;102472.63;5048231;28;20017;-52
2022/03/14 10:17:51;;;;;;;18.88;12.77;;;;;;;11.55;99.06;102464.75;5043173;28;20043;-50
2022/03/14 10:20:16;;;;;;;19.42;11.40;;;;;;;11.94;97.58;102470.44;5036872;28;20430;-52
2022/03/14 10:22:42;;;;;;;24.73;10.90;;;;;;;12.31;95.81;102472.66;5051726;28;20153;-52
2022/03/14 10:25:10;;;;;;;20.80;10.73;;;;;;;12.22;92.25;102483.31;5053682;28;20119;-52
2022/03/14 10:27:42;;;;;;;19.17;10.25;;;;;;;12.00;92.55;102490.50;5052657;28;20532;-51
2022/03/14 10:30:22;;;;;;;17.88;9.57;;;;;;;11.85;93.44;102500.63;5052517;28;20223;-52
2022/03/14 10:32:48;;;;;;;18.08;10.05;;;;;;;11.66;94.70;102497.78;5052264;28;20063;-51
2022/03/14 10:35:20;;;;;;;19.00;10.05;;;;;;;11.63;95.38;102501.59;5050845;28;20111;-51
2022/03/14 10:38:01;;;;;;;18.80;10.70;;;;;;;11.60;94.89;102507.19;5051776;28;20048;-48
2022/03/14 10:40:38;;;;;;;15.32;9.75;;;;;;;11.62;94.52;102509.75;5015728;28;20615;-50
2022/03/14 10:43:08;;;;;;;13.77;9.23;;;;;;;11.37;94.68;102501.91;5032191;28;20120;-50
2022/03/14 10:45:34;;;;;;;15.93;9.45;;;;;;;11.32;95.34;102512.13;5043457;28;20248;-51
2022/03/14 10:48:02;;;;;;;21.30;9.55;;;;;;;11.34;95.32;102514.69;5037575;28;20375;-50
2022/03/14 10:50:39;;;;;;;15.73;8.70;;;;;;;11.42;94.65;102524.75;5022357;28;20033;-50
2022/03/14 10:53:10;;;;;;;15.20;8.80;;;;;;;11.49;93.65;102516.09;5031798;28;20036;-51
2022/03/14 10:55:42;;;;;;;17.70;8.30;;;;;;;11.83;93.55;102517.78;5046278;28;20040;-52
2022/03/14 10:58:15;;;;;;;15.05;7.63;;;;;;;12.17;91.01;102521.22;5038117;28;20506;-52
2022/03/14 11:00:50;;;;;;;12.02;7.20;;;;;;;12.17;89.07;102514.97;5041759;28;20032;-49
2022/03/14 11:03:24;;;;;;;20.08;7.82;;;;;;;12.18;88.73;102522.91;5052182;28;20478;-51
2022/03/14 11:05:51;;;;;;;10.25;7.20;;;;;;;12.47;86.97;102528.47;5050781;28;20032;-49
2022/03/14 11:08:33;;;;;;;10.98;6.15;;;;;;;12.45;85.61;102535.75;5052474;28;20028;-50
2022/03/14 11:11:02;;;;;;;15.57;6.88;;;;;;;12.45;85.97;102525.03;5052683;28;20028;-52
2022/03/14 11:13:27;;;;;;;14.85;7.43;;;;;;;12.56;85.34;102547.38;5051395;28;20062;-51